createdAt,value
2022-09-28T00:00:00.503Z,1.1
2022-09-28T00:05:00.381Z,1.1
2022-09-28T00:10:00.394Z,1.1
2022-09-28T00:15:00.393Z,1.1
2022-09-28T00:20:00.414Z,1.1
2022-09-28T00:25:00.523Z,1.1
2022-09-28T00:30:00.481Z,1.1
2022-09-28T00:35:00.576Z,1.1
2022-09-28T00:40:00.467Z,1.1
2022-09-28T00:45:00.428Z,1.1
2022-09-28T00:50:00.374Z,1.1
2022-09-28T00:55:00.368Z,1.1
2022-09-28T01:00:00.381Z,1.1
2022-09-28T01:05:00.389Z,1.1
2022-09-28T01:10:00.460Z,1.1
2022-09-28T01:15:00.375Z,1.1
2022-09-28T01:20:00.455Z,1.1
2022-09-28T01:25:00.411Z,1.1
2022-09-28T01:30:00.404Z,1.1
2022-09-28T01:35:00.422Z,1.1
2022-09-28T01:40:00.415Z,1.1
2022-09-28T01:45:00.492Z,1.1
2022-09-28T01:50:00.403Z,1.1
2022-09-28T01:55:00.470Z,1.1
2022-09-28T02:00:00.490Z,1.1
2022-09-28T02:05:01.260Z,1.1
2022-09-28T02:10:01.196Z,1.1
2022-09-28T02:15:01.198Z,1.1
2022-09-28T02:20:01.210Z,1.1
2022-09-28T02:25:01.206Z,1.1
2022-09-28T02:30:01.203Z,1.1
2022-09-28T02:35:01.196Z,1.1
2022-09-28T02:40:01.208Z,1.1
2022-09-28T02:45:01.236Z,1.1
2022-09-28T02:50:01.231Z,1.1
2022-09-28T02:55:01.274Z,1.1
2022-09-28T03:00:01.487Z,1.1
2022-09-28T03:05:01.272Z,1.1
2022-09-28T03:10:01.511Z,1.1
2022-09-28T03:15:01.284Z,1.1
2022-09-28T03:20:01.391Z,1.1
2022-09-28T03:25:01.270Z,1.1
2022-09-28T03:30:01.339Z,1.1
2022-09-28T03:35:01.314Z,1.1
2022-09-28T03:40:01.367Z,1.1
2022-09-28T03:45:01.270Z,1.1
2022-09-28T03:50:01.275Z,1.1
2022-09-28T03:55:01.279Z,1.1
2022-09-28T04:00:01.493Z,1.1
2022-09-28T04:05:01.400Z,1.1
2022-09-28T04:10:01.429Z,1.1
2022-09-28T04:15:01.461Z,1.1
2022-09-28T04:20:00.262Z,1.1
2022-09-28T04:25:00.281Z,1.1
2022-09-28T04:30:00.312Z,1.1
2022-09-28T04:35:00.317Z,1.1
2022-09-28T04:40:00.538Z,1.1
2022-09-28T04:45:00.348Z,1.1
2022-09-28T04:50:00.529Z,1.1
2022-09-28T04:55:00.331Z,1.1
2022-09-28T05:00:00.412Z,1.1
2022-09-28T05:05:00.316Z,1.6
2022-09-28T05:10:00.526Z,3.6
2022-09-28T05:15:00.353Z,6.2
2022-09-28T05:20:00.418Z,9.7
2022-09-28T05:25:00.351Z,16.8
2022-09-28T05:30:00.372Z,32.9
2022-09-28T05:35:00.325Z,34
2022-09-28T05:40:00.373Z,41.2
2022-09-28T05:45:00.367Z,59
2022-09-28T05:50:00.351Z,67.3
2022-09-28T05:55:00.372Z,84.5
2022-09-28T06:00:00.390Z,136.3
2022-09-28T06:05:00.366Z,113.9
2022-09-28T06:10:00.375Z,157.4
2022-09-28T06:15:00.369Z,195.2
2022-09-28T06:20:00.389Z,289.6
2022-09-28T06:25:00.404Z,334.3
2022-09-28T06:30:00.405Z,326.4
2022-09-28T06:35:00.410Z,395.2
2022-09-28T06:40:00.397Z,532.9
2022-09-28T06:45:00.399Z,600.6
2022-09-28T06:50:00.400Z,579.4
2022-09-28T06:55:00.462Z,532.9
2022-09-28T07:00:00.482Z,586.4
2022-09-28T07:05:00.466Z,615.1
2022-09-28T07:10:00.438Z,762.9
2022-09-28T07:15:00.445Z,901.9
2022-09-28T07:20:11.120Z,1145.6
2022-09-28T07:25:00.447Z,1216.2
2022-09-28T07:30:00.483Z,1370.7
2022-09-28T07:35:00.485Z,1544.8
2022-09-28T07:40:01.515Z,668.8
2022-09-28T07:45:00.455Z,685.1
2022-09-28T07:50:00.471Z,653
2022-09-28T07:55:05.946Z,969
2022-09-28T08:00:00.634Z,859.8
2022-09-28T08:05:00.528Z,809.9
2022-09-28T08:10:00.600Z,653
2022-09-28T08:15:00.557Z,753.8
2022-09-28T08:20:00.581Z,1159.4
2022-09-28T08:25:00.592Z,1216.2
2022-09-28T08:30:00.620Z,1762
2022-09-28T08:35:00.595Z,1260.7
2022-09-28T08:40:00.579Z,1420.8
2022-09-28T08:45:00.735Z,1455.2
2022-09-28T08:50:00.718Z,1526.4
2022-09-28T08:55:00.713Z,1620.5
2022-09-28T09:00:00.914Z,1938.9
2022-09-28T09:05:00.859Z,2133.6
2022-09-28T09:10:00.831Z,2083.2
2022-09-28T09:15:00.624Z,2083.2
2022-09-28T09:20:00.830Z,1870.6
2022-09-28T09:25:00.600Z,1848.4
2022-09-28T09:30:00.619Z,2159.2
2022-09-28T09:35:00.615Z,1915.9
2022-09-28T09:40:00.604Z,2492.4
2022-09-28T09:45:00.590Z,2265.1
2022-09-28T09:50:04.082Z,2034
2022-09-28T09:55:00.608Z,2265.1
2022-09-28T10:00:00.599Z,1783.3
2022-09-28T10:05:00.605Z,2058.4
2022-09-28T10:10:00.601Z,2133.6
2022-09-28T10:15:00.613Z,2238.1
2022-09-28T10:20:00.494Z,2211.5
2022-09-28T10:25:00.354Z,2058.4
2022-09-28T10:30:00.247Z,1783.3
2022-09-28T10:35:00.256Z,1679.7
2022-09-28T10:40:00.213Z,1741
2022-09-28T10:45:00.239Z,2058.4
2022-09-28T10:50:00.338Z,2058.4
2022-09-28T10:55:00.265Z,2133.6
2022-09-28T11:00:00.409Z,2185.2
2022-09-28T11:05:00.261Z,1582.3
2022-09-28T11:10:00.340Z,1699.9
2022-09-28T11:15:00.291Z,1938.9
2022-09-28T11:20:00.326Z,1741
2022-09-28T11:25:00.286Z,1563.4
2022-09-28T11:30:00.365Z,1659.7
2022-09-28T11:35:00.657Z,1826.4
2022-09-28T11:40:00.305Z,2083.2
2022-09-28T11:45:00.373Z,1870.6
2022-09-28T11:50:00.277Z,1783.3
2022-09-28T11:55:00.357Z,1848.4
2022-09-28T12:00:00.359Z,1783.3
2022-09-28T12:05:00.375Z,1455.2
2022-09-28T12:10:00.365Z,1159.4
2022-09-28T12:15:00.502Z,1118.6
2022-09-28T12:20:00.354Z,1230.8
2022-09-28T12:25:00.447Z,1245.7
2022-09-28T12:30:00.391Z,1173.3
2022-09-28T12:35:00.411Z,1004.4
2022-09-28T12:40:00.818Z,1291.2
2022-09-28T12:45:00.386Z,1291.2
2022-09-28T12:55:00.503Z,790.8
2022-09-28T13:00:00.490Z,653
2022-09-28T13:05:00.388Z,478.5
2022-09-28T13:10:00.434Z,593.4
2022-09-28T13:15:00.470Z,520.3
2022-09-28T13:20:00.557Z,718.6
2022-09-28T13:25:00.458Z,701.6
2022-09-28T13:30:00.900Z,701.6
2022-09-28T13:35:00.426Z,637.6
2022-09-28T13:40:00.469Z,762.9
2022-09-28T13:45:00.493Z,744.8
2022-09-28T13:50:00.576Z,586.4
2022-09-28T13:55:00.528Z,539.3
2022-09-28T14:00:00.671Z,526.6
2022-09-28T14:05:00.438Z,552.4
2022-09-28T14:10:00.448Z,565.7
2022-09-28T14:15:00.455Z,490.1
2022-09-28T14:20:00.456Z,502
2022-09-28T14:25:00.438Z,622.5
2022-09-28T14:30:00.458Z,653
2022-09-28T14:35:00.458Z,880.6
2022-09-28T14:40:00.474Z,1041.1
2022-09-28T14:45:05.255Z,1508.3
2022-09-28T14:50:00.460Z,1216.2
2022-09-28T14:55:00.467Z,870.2
2022-09-28T15:00:00.482Z,870.2
2022-09-28T15:05:00.631Z,1216.2
2022-09-28T15:10:02.353Z,969
2022-09-28T15:15:00.452Z,718.6
2022-09-28T15:20:00.504Z,676.9
2022-09-28T15:25:02.662Z,607.8
2022-09-28T15:30:00.502Z,800.3
2022-09-28T15:35:00.508Z,849.6
2022-09-28T15:40:00.526Z,637.6
2022-09-28T15:45:00.516Z,490.1
2022-09-28T15:50:00.531Z,385.9
2022-09-28T15:55:00.564Z,419.6
2022-09-28T16:00:00.531Z,286.1
2022-09-28T16:05:00.534Z,279.4
2022-09-28T16:10:00.565Z,209.7
2022-09-28T16:15:00.543Z,195.2
2022-09-28T16:20:00.424Z,192.8
2022-09-28T16:25:00.265Z,167.1
2022-09-28T16:30:00.325Z,155.5
2022-09-28T16:35:00.223Z,144.7
2022-09-28T16:40:00.359Z,108.6
2022-09-28T16:45:00.233Z,91.9
2022-09-28T16:50:00.405Z,72.3
2022-09-28T16:55:00.236Z,43.8
2022-09-28T17:00:00.397Z,32.5
2022-09-28T17:05:00.243Z,28.8
2022-09-28T17:10:00.243Z,10.8
2022-09-28T17:15:00.286Z,7.3
2022-09-28T17:20:00.357Z,5.3
2022-09-28T17:25:00.321Z,2.5
2022-09-28T17:30:00.302Z,1.1
2022-09-28T17:35:22.618Z,1.1
2022-09-28T17:40:00.390Z,1.1
2022-09-28T17:45:00.330Z,1.1
2022-09-28T17:50:00.385Z,1.1
2022-09-28T17:55:00.335Z,1.1
2022-09-28T18:00:00.380Z,1.1
2022-09-28T18:05:00.378Z,1.1
2022-09-28T18:10:00.331Z,1.1
2022-09-28T18:15:00.368Z,1.1
2022-09-28T18:20:00.378Z,1.1
2022-09-28T18:25:00.355Z,1.1
2022-09-28T18:30:00.367Z,1.1
2022-09-28T18:35:00.322Z,1.1
2022-09-28T18:40:00.547Z,1.1
2022-09-28T18:45:00.437Z,1.1
2022-09-28T18:50:00.521Z,1.1
2022-09-28T18:55:00.404Z,1.1
2022-09-28T19:00:00.488Z,1.1
2022-09-28T19:05:00.409Z,1.1
2022-09-28T19:10:00.488Z,1.1
2022-09-28T19:15:00.438Z,1.1
2022-09-28T19:20:00.463Z,1.1
2022-09-28T19:25:00.406Z,1.1
2022-09-28T19:30:00.454Z,1.1
2022-09-28T19:35:00.424Z,1.1
2022-09-28T19:40:00.445Z,1.1
2022-09-28T19:45:00.435Z,1.1
2022-09-28T19:50:00.420Z,1.1
2022-09-28T19:55:00.443Z,1.1
2022-09-28T20:00:02.730Z,1.1
2022-09-28T20:05:00.435Z,1.1
2022-09-28T20:10:00.520Z,1.1
2022-09-28T20:15:00.458Z,1.1
2022-09-28T20:20:00.690Z,1.1
2022-09-28T20:25:00.549Z,1.1
2022-09-28T20:30:00.475Z,1.1
2022-09-28T20:35:00.518Z,1.1
2022-09-28T20:40:00.508Z,1.1
2022-09-28T20:45:00.642Z,1.1
2022-09-28T20:50:00.517Z,1.1
2022-09-28T20:55:00.504Z,1.1
2022-09-28T21:00:00.486Z,1.1
2022-09-28T21:05:00.486Z,1.1
2022-09-28T21:10:00.495Z,1.1
2022-09-28T21:15:05.495Z,1.1
2022-09-28T21:20:00.510Z,1.1
2022-09-28T21:25:00.502Z,1.1
2022-09-28T21:30:00.512Z,1.1
2022-09-28T21:35:00.566Z,1.1
2022-09-28T21:40:00.621Z,1.1
2022-09-28T21:45:00.582Z,1.1
2022-09-28T21:50:00.630Z,1.1
2022-09-28T21:55:00.648Z,1.1
2022-09-28T22:00:00.902Z,1.1
2022-09-28T22:05:00.718Z,1.1
2022-09-28T22:10:00.667Z,1.1
2022-09-28T22:15:00.659Z,1.1
2022-09-28T22:20:00.560Z,1.1
2022-09-28T22:25:00.359Z,1.1
2022-09-28T22:30:00.226Z,1.1
2022-09-28T22:35:00.262Z,1.1
2022-09-28T22:40:00.218Z,1.1
2022-09-28T22:45:00.231Z,1.1
2022-09-28T22:50:00.234Z,1.1
2022-09-28T22:55:00.274Z,1.1
2022-09-28T23:00:00.248Z,1.1
2022-09-28T23:05:00.244Z,1.1
2022-09-28T23:10:00.281Z,1.1
2022-09-28T23:15:00.267Z,1.1
2022-09-28T23:20:00.249Z,1.1
2022-09-28T23:25:00.297Z,1.1
2022-09-28T23:30:00.266Z,1.1
2022-09-28T23:35:00.284Z,1.1
2022-09-28T23:40:00.288Z,1.1
2022-09-28T23:45:00.304Z,1.1
2022-09-28T23:50:00.298Z,1.1
2022-09-28T23:55:00.294Z,1.1
